<?xml version="1.0"?>
<gpx xmlns="http://www.topografix.com/GPX/1/1" version="1.1" creator="afstandmeten.nl" xmlns:xsi="http://www.w3.org/2001/XMLSchema-instance" xsi:schemaLocation="http://www.topografix.com/GPX/1/1 http://www.topografix.com/GPX/1/1/gpx.xsd">
  <trk>
    <name>Rondje Banaan via Heinenoord</name>
    <desc/>
    <trkseg>
      <trkpt lat="51.8378194" lon="4.1547632">
        <ele>0.00000</ele>
        <time>2026-05-03T00:00:00Z</time>
      </trkpt>
      <trkpt lat="51.838891" lon="4.153037">
        <ele>0.00000</ele>
        <time>2026-05-03T00:00:08Z</time>
      </trkpt>
      <trkpt lat="51.839292" lon="4.154887">
        <ele>0.00000</ele>
        <time>2026-05-03T00:00:13Z</time>
      </trkpt>
      <trkpt lat="51.837807" lon="4.156118">
        <ele>0.00000</ele>
        <time>2026-05-03T00:00:21Z</time>
      </trkpt>
      <trkpt lat="51.838569" lon="4.158411">
        <ele>0.00000</ele>
        <time>2026-05-03T00:00:29Z</time>
      </trkpt>
      <trkpt lat="51.842663" lon="4.167441">
        <ele>0.00000</ele>
        <time>2026-05-03T00:01:02Z</time>
      </trkpt>
      <trkpt lat="51.854537" lon="4.195532">
        <ele>0.00000</ele>
        <time>2026-05-03T00:02:41Z</time>
      </trkpt>
      <trkpt lat="51.856068" lon="4.198592">
        <ele>0.00000</ele>
        <time>2026-05-03T00:02:53Z</time>
      </trkpt>
      <trkpt lat="51.856664" lon="4.200417">
        <ele>0.00000</ele>
        <time>2026-05-03T00:02:59Z</time>
      </trkpt>
      <trkpt lat="51.86522" lon="4.220283">
        <ele>0.00000</ele>
        <time>2026-05-03T00:04:10Z</time>
      </trkpt>
      <trkpt lat="51.866017" lon="4.221687">
        <ele>0.00000</ele>
        <time>2026-05-03T00:04:15Z</time>
      </trkpt>
      <trkpt lat="51.866473" lon="4.223163">
        <ele>0.00000</ele>
        <time>2026-05-03T00:04:20Z</time>
      </trkpt>
      <trkpt lat="51.867643" lon="4.224928">
        <ele>0.00000</ele>
        <time>2026-05-03T00:04:28Z</time>
      </trkpt>
      <trkpt lat="51.867668" lon="4.225649">
        <ele>0.00000</ele>
        <time>2026-05-03T00:04:30Z</time>
      </trkpt>
      <trkpt lat="51.870349" lon="4.231407">
        <ele>0.00000</ele>
        <time>2026-05-03T00:04:51Z</time>
      </trkpt>
      <trkpt lat="51.869657" lon="4.23315">
        <ele>0.00000</ele>
        <time>2026-05-03T00:04:57Z</time>
      </trkpt>
      <trkpt lat="51.86961" lon="4.234199">
        <ele>0.00000</ele>
        <time>2026-05-03T00:05:00Z</time>
      </trkpt>
      <trkpt lat="51.86961" lon="4.234199">
        <ele>0.00000</ele>
        <time>2026-05-03T00:05:00Z</time>
      </trkpt>
      <trkpt lat="51.870265" lon="4.241557">
        <ele>0.00000</ele>
        <time>2026-05-03T00:05:22Z</time>
      </trkpt>
      <trkpt lat="51.869309" lon="4.244834">
        <ele>0.00000</ele>
        <time>2026-05-03T00:05:32Z</time>
      </trkpt>
      <trkpt lat="51.867195" lon="4.248035">
        <ele>0.00000</ele>
        <time>2026-05-03T00:05:46Z</time>
      </trkpt>
      <trkpt lat="51.865369" lon="4.246633">
        <ele>0.00000</ele>
        <time>2026-05-03T00:05:56Z</time>
      </trkpt>
      <trkpt lat="51.864589" lon="4.246977">
        <ele>0.00000</ele>
        <time>2026-05-03T00:05:59Z</time>
      </trkpt>
      <trkpt lat="51.864056" lon="4.249308">
        <ele>0.00000</ele>
        <time>2026-05-03T00:06:07Z</time>
      </trkpt>
      <trkpt lat="51.86508" lon="4.250074">
        <ele>0.00000</ele>
        <time>2026-05-03T00:06:12Z</time>
      </trkpt>
      <trkpt lat="51.864688" lon="4.252155">
        <ele>0.00000</ele>
        <time>2026-05-03T00:06:18Z</time>
      </trkpt>
      <trkpt lat="51.865933" lon="4.254878">
        <ele>0.00000</ele>
        <time>2026-05-03T00:06:28Z</time>
      </trkpt>
      <trkpt lat="51.863716" lon="4.261692">
        <ele>0.00000</ele>
        <time>2026-05-03T00:06:51Z</time>
      </trkpt>
      <trkpt lat="51.863089" lon="4.266427">
        <ele>0.00000</ele>
        <time>2026-05-03T00:07:05Z</time>
      </trkpt>
      <trkpt lat="51.863322" lon="4.277804">
        <ele>0.00000</ele>
        <time>2026-05-03T00:07:38Z</time>
      </trkpt>
      <trkpt lat="51.863283" lon="4.28028">
        <ele>0.00000</ele>
        <time>2026-05-03T00:07:45Z</time>
      </trkpt>
      <trkpt lat="51.862778" lon="4.281589">
        <ele>0.00000</ele>
        <time>2026-05-03T00:07:50Z</time>
      </trkpt>
      <trkpt lat="51.863234" lon="4.283758">
        <ele>0.00000</ele>
        <time>2026-05-03T00:07:57Z</time>
      </trkpt>
      <trkpt lat="51.862929" lon="4.310995">
        <ele>0.00000</ele>
        <time>2026-05-03T00:09:16Z</time>
      </trkpt>
      <trkpt lat="51.862283" lon="4.312048">
        <ele>0.00000</ele>
        <time>2026-05-03T00:09:21Z</time>
      </trkpt>
      <trkpt lat="51.862537" lon="4.313525">
        <ele>0.00000</ele>
        <time>2026-05-03T00:09:25Z</time>
      </trkpt>
      <trkpt lat="51.861335" lon="4.318246">
        <ele>0.00000</ele>
        <time>2026-05-03T00:09:40Z</time>
      </trkpt>
      <trkpt lat="51.861467" lon="4.324879">
        <ele>0.00000</ele>
        <time>2026-05-03T00:09:59Z</time>
      </trkpt>
      <trkpt lat="51.858368" lon="4.326445">
        <ele>0.00000</ele>
        <time>2026-05-03T00:10:15Z</time>
      </trkpt>
      <trkpt lat="51.859536" lon="4.330476">
        <ele>0.00000</ele>
        <time>2026-05-03T00:10:28Z</time>
      </trkpt>
      <trkpt lat="51.856925" lon="4.333267">
        <ele>0.00000</ele>
        <time>2026-05-03T00:10:43Z</time>
      </trkpt>
      <trkpt lat="51.858404" lon="4.336018">
        <ele>0.00000</ele>
        <time>2026-05-03T00:10:53Z</time>
      </trkpt>
      <trkpt lat="51.858701" lon="4.337514">
        <ele>0.00000</ele>
        <time>2026-05-03T00:10:58Z</time>
      </trkpt>
      <trkpt lat="51.858075" lon="4.337738">
        <ele>0.00000</ele>
        <time>2026-05-03T00:11:01Z</time>
      </trkpt>
      <trkpt lat="51.858391" lon="4.337517">
        <ele>0.00000</ele>
        <time>2026-05-03T00:11:03Z</time>
      </trkpt>
      <trkpt lat="51.860755" lon="4.343478">
        <ele>0.00000</ele>
        <time>2026-05-03T00:11:23Z</time>
      </trkpt>
      <trkpt lat="51.860816" lon="4.344563">
        <ele>0.00000</ele>
        <time>2026-05-03T00:11:27Z</time>
      </trkpt>
      <trkpt lat="51.859308" lon="4.345267">
        <ele>0.00000</ele>
        <time>2026-05-03T00:11:34Z</time>
      </trkpt>
      <trkpt lat="51.859308" lon="4.345267">
        <ele>0.00000</ele>
        <time>2026-05-03T00:11:34Z</time>
      </trkpt>
      <trkpt lat="51.858382" lon="4.346237">
        <ele>0.00000</ele>
        <time>2026-05-03T00:11:39Z</time>
      </trkpt>
      <trkpt lat="51.858353" lon="4.346615">
        <ele>0.00000</ele>
        <time>2026-05-03T00:11:40Z</time>
      </trkpt>
      <trkpt lat="51.851784" lon="4.353417">
        <ele>0.00000</ele>
        <time>2026-05-03T00:12:17Z</time>
      </trkpt>
      <trkpt lat="51.850696" lon="4.355744">
        <ele>0.00000</ele>
        <time>2026-05-03T00:12:26Z</time>
      </trkpt>
      <trkpt lat="51.85052" lon="4.357418">
        <ele>0.00000</ele>
        <time>2026-05-03T00:12:31Z</time>
      </trkpt>
      <trkpt lat="51.849606" lon="4.358282">
        <ele>0.00000</ele>
        <time>2026-05-03T00:12:36Z</time>
      </trkpt>
      <trkpt lat="51.84765" lon="4.365413">
        <ele>0.00000</ele>
        <time>2026-05-03T00:12:59Z</time>
      </trkpt>
      <trkpt lat="51.845415" lon="4.377703">
        <ele>0.00000</ele>
        <time>2026-05-03T00:13:36Z</time>
      </trkpt>
      <trkpt lat="51.844976" lon="4.378651">
        <ele>0.00000</ele>
        <time>2026-05-03T00:13:39Z</time>
      </trkpt>
      <trkpt lat="51.844508" lon="4.381386">
        <ele>0.00000</ele>
        <time>2026-05-03T00:13:48Z</time>
      </trkpt>
      <trkpt lat="51.844531" lon="4.382687">
        <ele>0.00000</ele>
        <time>2026-05-03T00:13:52Z</time>
      </trkpt>
      <trkpt lat="51.845366" lon="4.385457">
        <ele>0.00000</ele>
        <time>2026-05-03T00:14:01Z</time>
      </trkpt>
      <trkpt lat="51.844211" lon="4.387489">
        <ele>0.00000</ele>
        <time>2026-05-03T00:14:09Z</time>
      </trkpt>
      <trkpt lat="51.843856" lon="4.38956">
        <ele>0.00000</ele>
        <time>2026-05-03T00:14:15Z</time>
      </trkpt>
      <trkpt lat="51.843993" lon="4.394608">
        <ele>0.00000</ele>
        <time>2026-05-03T00:14:30Z</time>
      </trkpt>
      <trkpt lat="51.845198" lon="4.403013">
        <ele>0.00000</ele>
        <time>2026-05-03T00:14:55Z</time>
      </trkpt>
      <trkpt lat="51.845328" lon="4.405307">
        <ele>0.00000</ele>
        <time>2026-05-03T00:15:02Z</time>
      </trkpt>
      <trkpt lat="51.846645" lon="4.40493">
        <ele>0.00000</ele>
        <time>2026-05-03T00:15:08Z</time>
      </trkpt>
      <trkpt lat="51.846833" lon="4.405264">
        <ele>0.00000</ele>
        <time>2026-05-03T00:15:09Z</time>
      </trkpt>
      <trkpt lat="51.846171" lon="4.409823">
        <ele>0.00000</ele>
        <time>2026-05-03T00:15:23Z</time>
      </trkpt>
      <trkpt lat="51.845664" lon="4.410794">
        <ele>0.00000</ele>
        <time>2026-05-03T00:15:27Z</time>
      </trkpt>
      <trkpt lat="51.845602" lon="4.412469">
        <ele>0.00000</ele>
        <time>2026-05-03T00:15:32Z</time>
      </trkpt>
      <trkpt lat="51.845602" lon="4.412469">
        <ele>0.00000</ele>
        <time>2026-05-03T00:15:32Z</time>
      </trkpt>
      <trkpt lat="51.8456" lon="4.414533">
        <ele>0.00000</ele>
        <time>2026-05-03T00:15:38Z</time>
      </trkpt>
      <trkpt lat="51.847249" lon="4.418332">
        <ele>0.00000</ele>
        <time>2026-05-03T00:15:51Z</time>
      </trkpt>
      <trkpt lat="51.846737" lon="4.418872">
        <ele>0.00000</ele>
        <time>2026-05-03T00:15:54Z</time>
      </trkpt>
      <trkpt lat="51.845865" lon="4.42161">
        <ele>0.00000</ele>
        <time>2026-05-03T00:16:03Z</time>
      </trkpt>
      <trkpt lat="51.845945" lon="4.422848">
        <ele>0.00000</ele>
        <time>2026-05-03T00:16:07Z</time>
      </trkpt>
      <trkpt lat="51.843161" lon="4.437341">
        <ele>0.00000</ele>
        <time>2026-05-03T00:16:51Z</time>
      </trkpt>
      <trkpt lat="51.842514" lon="4.439544">
        <ele>0.00000</ele>
        <time>2026-05-03T00:16:58Z</time>
      </trkpt>
      <trkpt lat="51.841492" lon="4.444892">
        <ele>0.00000</ele>
        <time>2026-05-03T00:17:15Z</time>
      </trkpt>
      <trkpt lat="51.841526" lon="4.445752">
        <ele>0.00000</ele>
        <time>2026-05-03T00:17:17Z</time>
      </trkpt>
      <trkpt lat="51.840385" lon="4.448372">
        <ele>0.00000</ele>
        <time>2026-05-03T00:17:27Z</time>
      </trkpt>
      <trkpt lat="51.839868" lon="4.450582">
        <ele>0.00000</ele>
        <time>2026-05-03T00:17:34Z</time>
      </trkpt>
      <trkpt lat="51.839304" lon="4.451446">
        <ele>0.00000</ele>
        <time>2026-05-03T00:17:37Z</time>
      </trkpt>
      <trkpt lat="51.839172" lon="4.453715">
        <ele>0.00000</ele>
        <time>2026-05-03T00:17:44Z</time>
      </trkpt>
      <trkpt lat="51.838081" lon="4.456231">
        <ele>0.00000</ele>
        <time>2026-05-03T00:17:53Z</time>
      </trkpt>
      <trkpt lat="51.837922" lon="4.457368">
        <ele>0.00000</ele>
        <time>2026-05-03T00:17:56Z</time>
      </trkpt>
      <trkpt lat="51.838124" lon="4.45828">
        <ele>0.00000</ele>
        <time>2026-05-03T00:17:59Z</time>
      </trkpt>
      <trkpt lat="51.836909" lon="4.461153">
        <ele>0.00000</ele>
        <time>2026-05-03T00:18:09Z</time>
      </trkpt>
      <trkpt lat="51.836185" lon="4.460788">
        <ele>0.00000</ele>
        <time>2026-05-03T00:18:13Z</time>
      </trkpt>
      <trkpt lat="51.836185" lon="4.460788">
        <ele>0.00000</ele>
        <time>2026-05-03T00:18:13Z</time>
      </trkpt>
      <trkpt lat="51.834796" lon="4.460033">
        <ele>0.00000</ele>
        <time>2026-05-03T00:18:20Z</time>
      </trkpt>
      <trkpt lat="51.834342" lon="4.464467">
        <ele>0.00000</ele>
        <time>2026-05-03T00:18:33Z</time>
      </trkpt>
      <trkpt lat="51.834828" lon="4.467288">
        <ele>0.00000</ele>
        <time>2026-05-03T00:18:42Z</time>
      </trkpt>
      <trkpt lat="51.834253" lon="4.467767">
        <ele>0.00000</ele>
        <time>2026-05-03T00:18:45Z</time>
      </trkpt>
      <trkpt lat="51.83436" lon="4.469366">
        <ele>0.00000</ele>
        <time>2026-05-03T00:18:49Z</time>
      </trkpt>
      <trkpt lat="51.835259" lon="4.470227">
        <ele>0.00000</ele>
        <time>2026-05-03T00:18:54Z</time>
      </trkpt>
      <trkpt lat="51.83577" lon="4.473053">
        <ele>0.00000</ele>
        <time>2026-05-03T00:19:03Z</time>
      </trkpt>
      <trkpt lat="51.839116" lon="4.48384">
        <ele>0.00000</ele>
        <time>2026-05-03T00:19:38Z</time>
      </trkpt>
      <trkpt lat="51.841377" lon="4.492155">
        <ele>0.00000</ele>
        <time>2026-05-03T00:20:05Z</time>
      </trkpt>
      <trkpt lat="51.840863" lon="4.493456">
        <ele>0.00000</ele>
        <time>2026-05-03T00:20:09Z</time>
      </trkpt>
      <trkpt lat="51.840644" lon="4.495871">
        <ele>0.00000</ele>
        <time>2026-05-03T00:20:16Z</time>
      </trkpt>
      <trkpt lat="51.840294" lon="4.497302">
        <ele>0.00000</ele>
        <time>2026-05-03T00:20:21Z</time>
      </trkpt>
      <trkpt lat="51.840416" lon="4.498751">
        <ele>0.00000</ele>
        <time>2026-05-03T00:20:25Z</time>
      </trkpt>
      <trkpt lat="51.840958" lon="4.499791">
        <ele>0.00000</ele>
        <time>2026-05-03T00:20:29Z</time>
      </trkpt>
      <trkpt lat="51.840962" lon="4.503708">
        <ele>0.00000</ele>
        <time>2026-05-03T00:20:41Z</time>
      </trkpt>
      <trkpt lat="51.840001" lon="4.507993">
        <ele>0.00000</ele>
        <time>2026-05-03T00:20:54Z</time>
      </trkpt>
      <trkpt lat="51.839409" lon="4.509348">
        <ele>0.00000</ele>
        <time>2026-05-03T00:20:59Z</time>
      </trkpt>
      <trkpt lat="51.839313" lon="4.511101">
        <ele>0.00000</ele>
        <time>2026-05-03T00:21:04Z</time>
      </trkpt>
      <trkpt lat="51.838905" lon="4.513023">
        <ele>0.00000</ele>
        <time>2026-05-03T00:21:10Z</time>
      </trkpt>
      <trkpt lat="51.838601" lon="4.513511">
        <ele>0.00000</ele>
        <time>2026-05-03T00:21:12Z</time>
      </trkpt>
      <trkpt lat="51.838531" lon="4.513683">
        <ele>0.00000</ele>
        <time>2026-05-03T00:21:13Z</time>
      </trkpt>
      <trkpt lat="51.838413" lon="4.514136">
        <ele>0.00000</ele>
        <time>2026-05-03T00:21:14Z</time>
      </trkpt>
      <trkpt lat="51.836941" lon="4.513442">
        <ele>0.00000</ele>
        <time>2026-05-03T00:21:21Z</time>
      </trkpt>
      <trkpt lat="51.835698" lon="4.512736">
        <ele>0.00000</ele>
        <time>2026-05-03T00:21:28Z</time>
      </trkpt>
      <trkpt lat="51.835606" lon="4.512703">
        <ele>0.00000</ele>
        <time>2026-05-03T00:21:28Z</time>
      </trkpt>
      <trkpt lat="51.835452" lon="4.512759">
        <ele>0.00000</ele>
        <time>2026-05-03T00:21:29Z</time>
      </trkpt>
      <trkpt lat="51.83539" lon="4.512865">
        <ele>0.00000</ele>
        <time>2026-05-03T00:21:29Z</time>
      </trkpt>
      <trkpt lat="51.834804" lon="4.515146">
        <ele>0.00000</ele>
        <time>2026-05-03T00:21:36Z</time>
      </trkpt>
      <trkpt lat="51.834806" lon="4.515456">
        <ele>0.00000</ele>
        <time>2026-05-03T00:21:37Z</time>
      </trkpt>
      <trkpt lat="51.83488" lon="4.51561">
        <ele>0.00000</ele>
        <time>2026-05-03T00:21:38Z</time>
      </trkpt>
      <trkpt lat="51.835183" lon="4.515795">
        <ele>0.00000</ele>
        <time>2026-05-03T00:21:39Z</time>
      </trkpt>
      <trkpt lat="51.835397" lon="4.515803">
        <ele>0.00000</ele>
        <time>2026-05-03T00:21:40Z</time>
      </trkpt>
      <trkpt lat="51.836732" lon="4.516308">
        <ele>0.00000</ele>
        <time>2026-05-03T00:21:47Z</time>
      </trkpt>
      <trkpt lat="51.836796" lon="4.516047">
        <ele>0.00000</ele>
        <time>2026-05-03T00:21:48Z</time>
      </trkpt>
      <trkpt lat="51.836839" lon="4.515993">
        <ele>0.00000</ele>
        <time>2026-05-03T00:21:48Z</time>
      </trkpt>
      <trkpt lat="51.836867" lon="4.515812">
        <ele>0.00000</ele>
        <time>2026-05-03T00:21:49Z</time>
      </trkpt>
      <trkpt lat="51.836676" lon="4.515645">
        <ele>0.00000</ele>
        <time>2026-05-03T00:21:50Z</time>
      </trkpt>
      <trkpt lat="51.83666" lon="4.515749">
        <ele>0.00000</ele>
        <time>2026-05-03T00:21:50Z</time>
      </trkpt>
      <trkpt lat="51.836061" lon="4.515416">
        <ele>0.00000</ele>
        <time>2026-05-03T00:21:53Z</time>
      </trkpt>
      <trkpt lat="51.827196" lon="4.50945">
        <ele>0.00000</ele>
        <time>2026-05-03T00:22:38Z</time>
      </trkpt>
      <trkpt lat="51.82691" lon="4.507562">
        <ele>0.00000</ele>
        <time>2026-05-03T00:22:44Z</time>
      </trkpt>
      <trkpt lat="51.8193" lon="4.4956">
        <ele>0.00000</ele>
        <time>2026-05-03T00:23:34Z</time>
      </trkpt>
      <trkpt lat="51.817591" lon="4.49852">
        <ele>0.00000</ele>
        <time>2026-05-03T00:23:46Z</time>
      </trkpt>
      <trkpt lat="51.815755" lon="4.497988">
        <ele>0.00000</ele>
        <time>2026-05-03T00:23:55Z</time>
      </trkpt>
      <trkpt lat="51.813423" lon="4.494143">
        <ele>0.00000</ele>
        <time>2026-05-03T00:24:11Z</time>
      </trkpt>
      <trkpt lat="51.812057" lon="4.48772">
        <ele>0.00000</ele>
        <time>2026-05-03T00:24:31Z</time>
      </trkpt>
      <trkpt lat="51.810574" lon="4.48523">
        <ele>0.00000</ele>
        <time>2026-05-03T00:24:41Z</time>
      </trkpt>
      <trkpt lat="51.789988" lon="4.470927">
        <ele>0.00000</ele>
        <time>2026-05-03T00:26:27Z</time>
      </trkpt>
      <trkpt lat="51.786521" lon="4.458404">
        <ele>0.00000</ele>
        <time>2026-05-03T00:27:07Z</time>
      </trkpt>
      <trkpt lat="51.775515" lon="4.46031">
        <ele>0.00000</ele>
        <time>2026-05-03T00:27:59Z</time>
      </trkpt>
      <trkpt lat="51.774504" lon="4.445416">
        <ele>0.00000</ele>
        <time>2026-05-03T00:28:43Z</time>
      </trkpt>
      <trkpt lat="51.77291" lon="4.445524">
        <ele>0.00000</ele>
        <time>2026-05-03T00:28:51Z</time>
      </trkpt>
      <trkpt lat="51.772029" lon="4.441996">
        <ele>0.00000</ele>
        <time>2026-05-03T00:29:02Z</time>
      </trkpt>
      <trkpt lat="51.76843" lon="4.444303">
        <ele>0.00000</ele>
        <time>2026-05-03T00:29:20Z</time>
      </trkpt>
      <trkpt lat="51.756269" lon="4.44503">
        <ele>0.00000</ele>
        <time>2026-05-03T00:30:18Z</time>
      </trkpt>
      <trkpt lat="51.741403" lon="4.439786">
        <ele>0.00000</ele>
        <time>2026-05-03T00:31:30Z</time>
      </trkpt>
      <trkpt lat="51.733426" lon="4.438449">
        <ele>0.00000</ele>
        <time>2026-05-03T00:32:08Z</time>
      </trkpt>
      <trkpt lat="51.734" lon="4.4235">
        <ele>0.00000</ele>
        <time>2026-05-03T00:32:52Z</time>
      </trkpt>
      <trkpt lat="51.731333" lon="4.41444">
        <ele>0.00000</ele>
        <time>2026-05-03T00:33:21Z</time>
      </trkpt>
      <trkpt lat="51.733046" lon="4.412994">
        <ele>0.00000</ele>
        <time>2026-05-03T00:33:30Z</time>
      </trkpt>
      <trkpt lat="51.730675" lon="4.410387">
        <ele>0.00000</ele>
        <time>2026-05-03T00:33:44Z</time>
      </trkpt>
      <trkpt lat="51.730675" lon="4.410387">
        <ele>0.00000</ele>
        <time>2026-05-03T00:33:44Z</time>
      </trkpt>
      <trkpt lat="51.709907" lon="4.397286">
        <ele>0.00000</ele>
        <time>2026-05-03T00:35:30Z</time>
      </trkpt>
      <trkpt lat="51.707192" lon="4.396158">
        <ele>0.00000</ele>
        <time>2026-05-03T00:35:43Z</time>
      </trkpt>
      <trkpt lat="51.704183" lon="4.395915">
        <ele>0.00000</ele>
        <time>2026-05-03T00:35:57Z</time>
      </trkpt>
      <trkpt lat="51.704852" lon="4.396767">
        <ele>0.00000</ele>
        <time>2026-05-03T00:36:01Z</time>
      </trkpt>
      <trkpt lat="51.704852" lon="4.396767">
        <ele>0.00000</ele>
        <time>2026-05-03T00:36:01Z</time>
      </trkpt>
      <trkpt lat="51.704183" lon="4.395915">
        <ele>0.00000</ele>
        <time>2026-05-03T00:36:05Z</time>
      </trkpt>
      <trkpt lat="51.707192" lon="4.396158">
        <ele>0.00000</ele>
        <time>2026-05-03T00:36:19Z</time>
      </trkpt>
      <trkpt lat="51.710067" lon="4.397372">
        <ele>0.00000</ele>
        <time>2026-05-03T00:36:34Z</time>
      </trkpt>
      <trkpt lat="51.732163" lon="4.411171">
        <ele>0.00000</ele>
        <time>2026-05-03T00:38:26Z</time>
      </trkpt>
      <trkpt lat="51.732646" lon="4.411745">
        <ele>0.00000</ele>
        <time>2026-05-03T00:38:29Z</time>
      </trkpt>
      <trkpt lat="51.736474" lon="4.403055">
        <ele>0.00000</ele>
        <time>2026-05-03T00:39:00Z</time>
      </trkpt>
      <trkpt lat="51.737916" lon="4.398168">
        <ele>0.00000</ele>
        <time>2026-05-03T00:39:16Z</time>
      </trkpt>
      <trkpt lat="51.737916" lon="4.398168">
        <ele>0.00000</ele>
        <time>2026-05-03T00:39:16Z</time>
      </trkpt>
      <trkpt lat="51.741894" lon="4.384634">
        <ele>0.00000</ele>
        <time>2026-05-03T00:40:00Z</time>
      </trkpt>
      <trkpt lat="51.742945" lon="4.383137">
        <ele>0.00000</ele>
        <time>2026-05-03T00:40:06Z</time>
      </trkpt>
      <trkpt lat="51.74921" lon="4.380838">
        <ele>0.00000</ele>
        <time>2026-05-03T00:40:37Z</time>
      </trkpt>
      <trkpt lat="51.749318" lon="4.380473">
        <ele>0.00000</ele>
        <time>2026-05-03T00:40:38Z</time>
      </trkpt>
      <trkpt lat="51.749028" lon="4.378322">
        <ele>0.00000</ele>
        <time>2026-05-03T00:40:44Z</time>
      </trkpt>
      <trkpt lat="51.754621" lon="4.378927">
        <ele>0.00000</ele>
        <time>2026-05-03T00:41:11Z</time>
      </trkpt>
      <trkpt lat="51.754639" lon="4.378632">
        <ele>0.00000</ele>
        <time>2026-05-03T00:41:12Z</time>
      </trkpt>
      <trkpt lat="51.755196" lon="4.378975">
        <ele>0.00000</ele>
        <time>2026-05-03T00:41:15Z</time>
      </trkpt>
      <trkpt lat="51.757347" lon="4.379182">
        <ele>0.00000</ele>
        <time>2026-05-03T00:41:25Z</time>
      </trkpt>
      <trkpt lat="51.757837" lon="4.3789">
        <ele>0.00000</ele>
        <time>2026-05-03T00:41:27Z</time>
      </trkpt>
      <trkpt lat="51.758669" lon="4.374694">
        <ele>0.00000</ele>
        <time>2026-05-03T00:41:40Z</time>
      </trkpt>
      <trkpt lat="51.759381" lon="4.372767">
        <ele>0.00000</ele>
        <time>2026-05-03T00:41:47Z</time>
      </trkpt>
      <trkpt lat="51.759681" lon="4.373008">
        <ele>0.00000</ele>
        <time>2026-05-03T00:41:48Z</time>
      </trkpt>
      <trkpt lat="51.760106" lon="4.372668">
        <ele>0.00000</ele>
        <time>2026-05-03T00:41:51Z</time>
      </trkpt>
      <trkpt lat="51.760552" lon="4.372855">
        <ele>0.00000</ele>
        <time>2026-05-03T00:41:53Z</time>
      </trkpt>
      <trkpt lat="51.760918" lon="4.373723">
        <ele>0.00000</ele>
        <time>2026-05-03T00:41:56Z</time>
      </trkpt>
      <trkpt lat="51.760918" lon="4.373723">
        <ele>0.00000</ele>
        <time>2026-05-03T00:41:56Z</time>
      </trkpt>
      <trkpt lat="51.761654" lon="4.375622">
        <ele>0.00000</ele>
        <time>2026-05-03T00:42:02Z</time>
      </trkpt>
      <trkpt lat="51.761872" lon="4.375702">
        <ele>0.00000</ele>
        <time>2026-05-03T00:42:03Z</time>
      </trkpt>
      <trkpt lat="51.764321" lon="4.373678">
        <ele>0.00000</ele>
        <time>2026-05-03T00:42:16Z</time>
      </trkpt>
      <trkpt lat="51.767482" lon="4.371436">
        <ele>0.00000</ele>
        <time>2026-05-03T00:42:33Z</time>
      </trkpt>
      <trkpt lat="51.767405" lon="4.371096">
        <ele>0.00000</ele>
        <time>2026-05-03T00:42:34Z</time>
      </trkpt>
      <trkpt lat="51.767518" lon="4.370695">
        <ele>0.00000</ele>
        <time>2026-05-03T00:42:35Z</time>
      </trkpt>
      <trkpt lat="51.769971" lon="4.368699">
        <ele>0.00000</ele>
        <time>2026-05-03T00:42:48Z</time>
      </trkpt>
      <trkpt lat="51.772547" lon="4.364786">
        <ele>0.00000</ele>
        <time>2026-05-03T00:43:05Z</time>
      </trkpt>
      <trkpt lat="51.772743" lon="4.364818">
        <ele>0.00000</ele>
        <time>2026-05-03T00:43:06Z</time>
      </trkpt>
      <trkpt lat="51.773228" lon="4.36316">
        <ele>0.00000</ele>
        <time>2026-05-03T00:43:11Z</time>
      </trkpt>
      <trkpt lat="51.773569" lon="4.359543">
        <ele>0.00000</ele>
        <time>2026-05-03T00:43:22Z</time>
      </trkpt>
      <trkpt lat="51.773247" lon="4.354535">
        <ele>0.00000</ele>
        <time>2026-05-03T00:43:37Z</time>
      </trkpt>
      <trkpt lat="51.773247" lon="4.354535">
        <ele>0.00000</ele>
        <time>2026-05-03T00:43:37Z</time>
      </trkpt>
      <trkpt lat="51.773146" lon="4.352828">
        <ele>0.00000</ele>
        <time>2026-05-03T00:43:42Z</time>
      </trkpt>
      <trkpt lat="51.773222" lon="4.352464">
        <ele>0.00000</ele>
        <time>2026-05-03T00:43:43Z</time>
      </trkpt>
      <trkpt lat="51.780934" lon="4.353397">
        <ele>0.00000</ele>
        <time>2026-05-03T00:44:19Z</time>
      </trkpt>
      <trkpt lat="51.781572" lon="4.353357">
        <ele>0.00000</ele>
        <time>2026-05-03T00:44:23Z</time>
      </trkpt>
      <trkpt lat="51.781474" lon="4.347577">
        <ele>0.00000</ele>
        <time>2026-05-03T00:44:39Z</time>
      </trkpt>
      <trkpt lat="51.780326" lon="4.344007">
        <ele>0.00000</ele>
        <time>2026-05-03T00:44:51Z</time>
      </trkpt>
      <trkpt lat="51.780121" lon="4.34313">
        <ele>0.00000</ele>
        <time>2026-05-03T00:44:54Z</time>
      </trkpt>
      <trkpt lat="51.780077" lon="4.342104">
        <ele>0.00000</ele>
        <time>2026-05-03T00:44:57Z</time>
      </trkpt>
      <trkpt lat="51.780369" lon="4.340943">
        <ele>0.00000</ele>
        <time>2026-05-03T00:45:01Z</time>
      </trkpt>
      <trkpt lat="51.782828" lon="4.334505">
        <ele>0.00000</ele>
        <time>2026-05-03T00:45:23Z</time>
      </trkpt>
      <trkpt lat="51.783027" lon="4.334373">
        <ele>0.00000</ele>
        <time>2026-05-03T00:45:24Z</time>
      </trkpt>
      <trkpt lat="51.783861" lon="4.335368">
        <ele>0.00000</ele>
        <time>2026-05-03T00:45:29Z</time>
      </trkpt>
      <trkpt lat="51.783861" lon="4.335368">
        <ele>0.00000</ele>
        <time>2026-05-03T00:45:29Z</time>
      </trkpt>
      <trkpt lat="51.7883" lon="4.3376">
        <ele>0.00000</ele>
        <time>2026-05-03T00:45:51Z</time>
      </trkpt>
      <trkpt lat="51.7919" lon="4.3415">
        <ele>0.00000</ele>
        <time>2026-05-03T00:46:11Z</time>
      </trkpt>
      <trkpt lat="51.7965" lon="4.3431">
        <ele>0.00000</ele>
        <time>2026-05-03T00:46:34Z</time>
      </trkpt>
      <trkpt lat="51.797922" lon="4.341968">
        <ele>0.00000</ele>
        <time>2026-05-03T00:46:41Z</time>
      </trkpt>
      <trkpt lat="51.798396" lon="4.343116">
        <ele>0.00000</ele>
        <time>2026-05-03T00:46:45Z</time>
      </trkpt>
      <trkpt lat="51.802256" lon="4.343709">
        <ele>0.00000</ele>
        <time>2026-05-03T00:47:03Z</time>
      </trkpt>
      <trkpt lat="51.802975" lon="4.343182">
        <ele>0.00000</ele>
        <time>2026-05-03T00:47:07Z</time>
      </trkpt>
      <trkpt lat="51.80359" lon="4.343991">
        <ele>0.00000</ele>
        <time>2026-05-03T00:47:11Z</time>
      </trkpt>
      <trkpt lat="51.806939" lon="4.344434">
        <ele>0.00000</ele>
        <time>2026-05-03T00:47:27Z</time>
      </trkpt>
      <trkpt lat="51.806977" lon="4.344684">
        <ele>0.00000</ele>
        <time>2026-05-03T00:47:28Z</time>
      </trkpt>
      <trkpt lat="51.807715" lon="4.344349">
        <ele>0.00000</ele>
        <time>2026-05-03T00:47:31Z</time>
      </trkpt>
      <trkpt lat="51.808098" lon="4.34343">
        <ele>0.00000</ele>
        <time>2026-05-03T00:47:34Z</time>
      </trkpt>
      <trkpt lat="51.814058" lon="4.338313">
        <ele>0.00000</ele>
        <time>2026-05-03T00:48:06Z</time>
      </trkpt>
      <trkpt lat="51.815435" lon="4.339037">
        <ele>0.00000</ele>
        <time>2026-05-03T00:48:13Z</time>
      </trkpt>
      <trkpt lat="51.817339" lon="4.338099">
        <ele>0.00000</ele>
        <time>2026-05-03T00:48:23Z</time>
      </trkpt>
      <trkpt lat="51.817228" lon="4.337256">
        <ele>0.00000</ele>
        <time>2026-05-03T00:48:25Z</time>
      </trkpt>
      <trkpt lat="51.817228" lon="4.337256">
        <ele>0.00000</ele>
        <time>2026-05-03T00:48:25Z</time>
      </trkpt>
      <trkpt lat="51.816814" lon="4.33467">
        <ele>0.00000</ele>
        <time>2026-05-03T00:48:33Z</time>
      </trkpt>
      <trkpt lat="51.815148" lon="4.331312">
        <ele>0.00000</ele>
        <time>2026-05-03T00:48:46Z</time>
      </trkpt>
      <trkpt lat="51.80944" lon="4.30256">
        <ele>0.00000</ele>
        <time>2026-05-03T00:50:14Z</time>
      </trkpt>
      <trkpt lat="51.80814" lon="4.301915">
        <ele>0.00000</ele>
        <time>2026-05-03T00:50:21Z</time>
      </trkpt>
      <trkpt lat="51.8075" lon="4.29973">
        <ele>0.00000</ele>
        <time>2026-05-03T00:50:28Z</time>
      </trkpt>
      <trkpt lat="51.8076" lon="4.2973">
        <ele>0.00000</ele>
        <time>2026-05-03T00:50:35Z</time>
      </trkpt>
      <trkpt lat="51.806952" lon="4.292723">
        <ele>0.00000</ele>
        <time>2026-05-03T00:50:48Z</time>
      </trkpt>
      <trkpt lat="51.807859" lon="4.288177">
        <ele>0.00000</ele>
        <time>2026-05-03T00:51:02Z</time>
      </trkpt>
      <trkpt lat="51.807973" lon="4.283598">
        <ele>0.00000</ele>
        <time>2026-05-03T00:51:16Z</time>
      </trkpt>
      <trkpt lat="51.805801" lon="4.282585">
        <ele>0.00000</ele>
        <time>2026-05-03T00:51:27Z</time>
      </trkpt>
      <trkpt lat="51.805107" lon="4.279971">
        <ele>0.00000</ele>
        <time>2026-05-03T00:51:35Z</time>
      </trkpt>
      <trkpt lat="51.807064" lon="4.26857">
        <ele>0.00000</ele>
        <time>2026-05-03T00:52:10Z</time>
      </trkpt>
      <trkpt lat="51.806782" lon="4.262127">
        <ele>0.00000</ele>
        <time>2026-05-03T00:52:28Z</time>
      </trkpt>
      <trkpt lat="51.804887" lon="4.256731">
        <ele>0.00000</ele>
        <time>2026-05-03T00:52:47Z</time>
      </trkpt>
      <trkpt lat="51.805886" lon="4.254069">
        <ele>0.00000</ele>
        <time>2026-05-03T00:52:56Z</time>
      </trkpt>
      <trkpt lat="51.796997" lon="4.2427">
        <ele>0.00000</ele>
        <time>2026-05-03T00:53:49Z</time>
      </trkpt>
      <trkpt lat="51.808196" lon="4.198498">
        <ele>0.00000</ele>
        <time>2026-05-03T00:56:09Z</time>
      </trkpt>
      <trkpt lat="51.808196" lon="4.198498">
        <ele>0.00000</ele>
        <time>2026-05-03T00:56:09Z</time>
      </trkpt>
      <trkpt lat="51.809024" lon="4.195828">
        <ele>0.00000</ele>
        <time>2026-05-03T00:56:18Z</time>
      </trkpt>
      <trkpt lat="51.808974" lon="4.195377">
        <ele>0.00000</ele>
        <time>2026-05-03T00:56:19Z</time>
      </trkpt>
      <trkpt lat="51.806776" lon="4.190989">
        <ele>0.00000</ele>
        <time>2026-05-03T00:56:36Z</time>
      </trkpt>
      <trkpt lat="51.804922" lon="4.185979">
        <ele>0.00000</ele>
        <time>2026-05-03T00:56:53Z</time>
      </trkpt>
      <trkpt lat="51.8046" lon="4.1848">
        <ele>0.00000</ele>
        <time>2026-05-03T00:56:57Z</time>
      </trkpt>
      <trkpt lat="51.80492" lon="4.182817">
        <ele>0.00000</ele>
        <time>2026-05-03T00:57:03Z</time>
      </trkpt>
      <trkpt lat="51.808135" lon="4.179175">
        <ele>0.00000</ele>
        <time>2026-05-03T00:57:21Z</time>
      </trkpt>
      <trkpt lat="51.810224" lon="4.175541">
        <ele>0.00000</ele>
        <time>2026-05-03T00:57:36Z</time>
      </trkpt>
      <trkpt lat="51.811514" lon="4.173831">
        <ele>0.00000</ele>
        <time>2026-05-03T00:57:44Z</time>
      </trkpt>
      <trkpt lat="51.814112" lon="4.171021">
        <ele>0.00000</ele>
        <time>2026-05-03T00:57:59Z</time>
      </trkpt>
      <trkpt lat="51.814652" lon="4.170762">
        <ele>0.00000</ele>
        <time>2026-05-03T00:58:01Z</time>
      </trkpt>
      <trkpt lat="51.821726" lon="4.162594">
        <ele>0.00000</ele>
        <time>2026-05-03T00:58:42Z</time>
      </trkpt>
      <trkpt lat="51.824416" lon="4.158939">
        <ele>0.00000</ele>
        <time>2026-05-03T00:58:59Z</time>
      </trkpt>
      <trkpt lat="51.829956" lon="4.153279">
        <ele>0.00000</ele>
        <time>2026-05-03T00:59:30Z</time>
      </trkpt>
      <trkpt lat="51.830934" lon="4.152729">
        <ele>0.00000</ele>
        <time>2026-05-03T00:59:35Z</time>
      </trkpt>
      <trkpt lat="51.831891" lon="4.151629">
        <ele>0.00000</ele>
        <time>2026-05-03T00:59:41Z</time>
      </trkpt>
      <trkpt lat="51.831989" lon="4.150892">
        <ele>0.00000</ele>
        <time>2026-05-03T00:59:43Z</time>
      </trkpt>
      <trkpt lat="51.834396" lon="4.148372">
        <ele>0.00000</ele>
        <time>2026-05-03T00:59:56Z</time>
      </trkpt>
    </trkseg>
  </trk>
</gpx>

